sensor_id;sensor_type;location;lat;lon;timestamp;P1;P2;P0
60245;PMS5003;46107;53.356;-1.524;2022-08-04T00:01:34;5;5;
60245;PMS5003;46107;53.356;-1.524;2022-08-04T00:04:08;4;4;
60245;PMS5003;46107;53.356;-1.524;2022-08-04T00:06:44;6;4;
60245;PMS5003;46107;53.356;-1.524;2022-08-04T00:09:23;4;3;
60245;PMS5003;46107;53.356;-1.524;2022-08-04T00:11:57;6;6;
60245;PMS5003;46107;53.356;-1.524;2022-08-04T00:14:28;5;4;
60245;PMS5003;46107;53.356;-1.524;2022-08-04T00:17:02;5;3;
60245;PMS5003;46107;53.356;-1.524;2022-08-04T00:19:32;4;2;
60245;PMS5003;46107;53.356;-1.524;2022-08-04T00:22:04;6;6;
60245;PMS5003;46107;53.356;-1.524;2022-08-04T00:24:36;8;5;
60245;PMS5003;46107;53.356;-1.524;2022-08-04T00:27:04;6;4;
60245;PMS5003;46107;53.356;-1.524;2022-08-04T00:29:33;7;5;
60245;PMS5003;46107;53.356;-1.524;2022-08-04T00:32:03;4;4;
60245;PMS5003;46107;53.356;-1.524;2022-08-04T00:34:34;6;5;
60245;PMS5003;46107;53.356;-1.524;2022-08-04T00:37:02;7;6;
60245;PMS5003;46107;53.356;-1.524;2022-08-04T00:39:32;3;3;
60245;PMS5003;46107;53.356;-1.524;2022-08-04T00:42:08;6;4;
60245;PMS5003;46107;53.356;-1.524;2022-08-04T00:44:52;7;4;
60245;PMS5003;46107;53.356;-1.524;2022-08-04T00:47:37;4;4;
60245;PMS5003;46107;53.356;-1.524;2022-08-04T00:50:18;10;7;
60245;PMS5003;46107;53.356;-1.524;2022-08-04T00:53:00;3;3;
60245;PMS5003;46107;53.356;-1.524;2022-08-04T00:55:39;6;5;
60245;PMS5003;46107;53.356;-1.524;2022-08-04T00:58:27;5;5;
60245;PMS5003;46107;53.356;-1.524;2022-08-04T01:01:03;6;5;
60245;PMS5003;46107;53.356;-1.524;2022-08-04T01:04:08;6;4;
60245;PMS5003;46107;53.356;-1.524;2022-08-04T01:06:44;4;4;
60245;PMS5003;46107;53.356;-1.524;2022-08-04T01:09:33;6;6;
60245;PMS5003;46107;53.356;-1.524;2022-08-04T01:12:18;7;6;
60245;PMS5003;46107;53.356;-1.524;2022-08-04T01:15:06;5;5;
60245;PMS5003;46107;53.356;-1.524;2022-08-04T01:17:45;5;4;
60245;PMS5003;46107;53.356;-1.524;2022-08-04T01:20:25;9;7;
60245;PMS5003;46107;53.356;-1.524;2022-08-04T01:23:08;4;3;
60245;PMS5003;46107;53.356;-1.524;2022-08-04T01:25:33;4;3;
60245;PMS5003;46107;53.356;-1.524;2022-08-04T01:28:28;6;3;
60245;PMS5003;46107;53.356;-1.524;2022-08-04T01:31:07;7;4;
60245;PMS5003;46107;53.356;-1.524;2022-08-04T01:33:45;4;3;
60245;PMS5003;46107;53.356;-1.524;2022-08-04T01:36:16;4;4;
60245;PMS5003;46107;53.356;-1.524;2022-08-04T01:38:49;3;3;
60245;PMS5003;46107;53.356;-1.524;2022-08-04T01:41:20;5;5;
60245;PMS5003;46107;53.356;-1.524;2022-08-04T01:43:49;10;6;
60245;PMS5003;46107;53.356;-1.524;2022-08-04T01:46:21;3;3;
60245;PMS5003;46107;53.356;-1.524;2022-08-04T01:48:52;5;3;
60245;PMS5003;46107;53.356;-1.524;2022-08-04T01:51:21;5;5;
60245;PMS5003;46107;53.356;-1.524;2022-08-04T01:53:50;4;4;
60245;PMS5003;46107;53.356;-1.524;2022-08-04T01:56:18;5;3;
60245;PMS5003;46107;53.356;-1.524;2022-08-04T01:58:46;6;3;
60245;PMS5003;46107;53.356;-1.524;2022-08-04T02:01:14;3;3;
60245;PMS5003;46107;53.356;-1.524;2022-08-04T02:03:43;3;3;
60245;PMS5003;46107;53.356;-1.524;2022-08-04T02:06:15;3;3;
60245;PMS5003;46107;53.356;-1.524;2022-08-04T02:08:54;5;3;
60245;PMS5003;46107;53.356;-1.524;2022-08-04T02:11:28;6;5;
60245;PMS5003;46107;53.356;-1.524;2022-08-04T02:13:57;4;4;
60245;PMS5003;46107;53.356;-1.524;2022-08-04T02:16:38;4;3;
60245;PMS5003;46107;53.356;-1.524;2022-08-04T02:19:14;5;5;
60245;PMS5003;46107;53.356;-1.524;2022-08-04T02:21:55;6;6;
60245;PMS5003;46107;53.356;-1.524;2022-08-04T02:24:32;4;4;
60245;PMS5003;46107;53.356;-1.524;2022-08-04T02:27:08;5;5;
60245;PMS5003;46107;53.356;-1.524;2022-08-04T02:29:39;5;5;
60245;PMS5003;46107;53.356;-1.524;2022-08-04T02:32:17;5;4;
60245;PMS5003;46107;53.356;-1.524;2022-08-04T02:34:52;4;4;
60245;PMS5003;46107;53.356;-1.524;2022-08-04T02:37:30;5;5;
60245;PMS5003;46107;53.356;-1.524;2022-08-04T02:39:58;5;5;
60245;PMS5003;46107;53.356;-1.524;2022-08-04T02:42:29;9;6;
60245;PMS5003;46107;53.356;-1.524;2022-08-04T02:44:58;7;3;
60245;PMS5003;46107;53.356;-1.524;2022-08-04T02:47:27;4;4;
60245;PMS5003;46107;53.356;-1.524;2022-08-04T02:49:55;7;5;
60245;PMS5003;46107;53.356;-1.524;2022-08-04T02:52:23;10;7;
60245;PMS5003;46107;53.356;-1.524;2022-08-04T02:54:53;5;5;
60245;PMS5003;46107;53.356;-1.524;2022-08-04T02:57:26;9;5;
60245;PMS5003;46107;53.356;-1.524;2022-08-04T03:00:03;6;6;
60245;PMS5003;46107;53.356;-1.524;2022-08-04T03:02:36;4;4;
60245;PMS5003;46107;53.356;-1.524;2022-08-04T03:05:20;5;5;
60245;PMS5003;46107;53.356;-1.524;2022-08-04T03:07:56;6;6;
60245;PMS5003;46107;53.356;-1.524;2022-08-04T03:10:45;5;5;
60245;PMS5003;46107;53.356;-1.524;2022-08-04T03:14:09;6;5;
60245;PMS5003;46107;53.356;-1.524;2022-08-04T03:17:03;8;6;
60245;PMS5003;46107;53.356;-1.524;2022-08-04T03:19:52;6;6;
60245;PMS5003;46107;53.356;-1.524;2022-08-04T03:22:43;8;7;
60245;PMS5003;46107;53.356;-1.524;2022-08-04T03:25:35;6;6;
60245;PMS5003;46107;53.356;-1.524;2022-08-04T03:28:25;7;7;
60245;PMS5003;46107;53.356;-1.524;2022-08-04T03:31:34;6;6;
60245;PMS5003;46107;53.356;-1.524;2022-08-04T03:34:58;8;6;
60245;PMS5003;46107;53.356;-1.524;2022-08-04T03:37:42;9;9;
60245;PMS5003;46107;53.356;-1.524;2022-08-04T03:40:33;10;10;
60245;PMS5003;46107;53.356;-1.524;2022-08-04T03:44:52;7;7;
60245;PMS5003;46107;53.356;-1.524;2022-08-04T03:47:41;14;13;
60245;PMS5003;46107;53.356;-1.524;2022-08-04T03:50:24;12;11;
60245;PMS5003;46107;53.356;-1.524;2022-08-04T03:53:13;14;13;
60245;PMS5003;46107;53.356;-1.524;2022-08-04T03:56:04;9;9;
60245;PMS5003;46107;53.356;-1.524;2022-08-04T03:58:51;8;8;
60245;PMS5003;46107;53.356;-1.524;2022-08-04T04:01:42;12;11;
60245;PMS5003;46107;53.356;-1.524;2022-08-04T04:04:34;13;12;
60245;PMS5003;46107;53.356;-1.524;2022-08-04T04:07:29;10;8;
60245;PMS5003;46107;53.356;-1.524;2022-08-04T04:10:20;14;11;
60245;PMS5003;46107;53.356;-1.524;2022-08-04T04:13:01;10;10;
60245;PMS5003;46107;53.356;-1.524;2022-08-04T04:15:46;11;10;
60245;PMS5003;46107;53.356;-1.524;2022-08-04T04:18:27;11;11;
60245;PMS5003;46107;53.356;-1.524;2022-08-04T04:21:18;12;11;
60245;PMS5003;46107;53.356;-1.524;2022-08-04T04:23:59;12;12;
60245;PMS5003;46107;53.356;-1.524;2022-08-04T04:26:36;14;13;
60245;PMS5003;46107;53.356;-1.524;2022-08-04T04:29:23;20;18;
60245;PMS5003;46107;53.356;-1.524;2022-08-04T04:32:04;17;17;
60245;PMS5003;46107;53.356;-1.524;2022-08-04T04:34:46;16;16;
60245;PMS5003;46107;53.356;-1.524;2022-08-04T04:37:36;19;17;
60245;PMS5003;46107;53.356;-1.524;2022-08-04T04:40:21;16;12;
60245;PMS5003;46107;53.356;-1.524;2022-08-04T04:43:09;13;13;
60245;PMS5003;46107;53.356;-1.524;2022-08-04T04:45:48;17;16;
60245;PMS5003;46107;53.356;-1.524;2022-08-04T04:48:26;21;17;
60245;PMS5003;46107;53.356;-1.524;2022-08-04T04:51:07;18;16;
60245;PMS5003;46107;53.356;-1.524;2022-08-04T04:53:57;13;13;
60245;PMS5003;46107;53.356;-1.524;2022-08-04T04:56:33;12;12;
60245;PMS5003;46107;53.356;-1.524;2022-08-04T04:59:08;12;12;
60245;PMS5003;46107;53.356;-1.524;2022-08-04T05:02:34;13;10;
60245;PMS5003;46107;53.356;-1.524;2022-08-04T05:05:26;14;12;
60245;PMS5003;46107;53.356;-1.524;2022-08-04T05:08:25;12;11;
60245;PMS5003;46107;53.356;-1.524;2022-08-04T05:11:17;13;13;
60245;PMS5003;46107;53.356;-1.524;2022-08-04T05:13:58;14;13;
60245;PMS5003;46107;53.356;-1.524;2022-08-04T05:16:31;13;13;
60245;PMS5003;46107;53.356;-1.524;2022-08-04T05:19:02;9;9;
60245;PMS5003;46107;53.356;-1.524;2022-08-04T05:21:46;12;12;
60245;PMS5003;46107;53.356;-1.524;2022-08-04T05:24:16;12;9;
60245;PMS5003;46107;53.356;-1.524;2022-08-04T05:26:47;9;9;
60245;PMS5003;46107;53.356;-1.524;2022-08-04T05:29:22;8;8;
60245;PMS5003;46107;53.356;-1.524;2022-08-04T05:31:55;8;8;
60245;PMS5003;46107;53.356;-1.524;2022-08-04T05:34:25;8;8;
60245;PMS5003;46107;53.356;-1.524;2022-08-04T05:36:57;7;7;
60245;PMS5003;46107;53.356;-1.524;2022-08-04T05:39:27;7;5;
60245;PMS5003;46107;53.356;-1.524;2022-08-04T05:41:58;3;3;
60245;PMS5003;46107;53.356;-1.524;2022-08-04T05:44:26;5;5;
60245;PMS5003;46107;53.356;-1.524;2022-08-04T05:46:55;5;5;
60245;PMS5003;46107;53.356;-1.524;2022-08-04T05:49:24;5;5;
60245;PMS5003;46107;53.356;-1.524;2022-08-04T05:51:53;5;3;
60245;PMS5003;46107;53.356;-1.524;2022-08-04T05:54:22;5;5;
60245;PMS5003;46107;53.356;-1.524;2022-08-04T05:56:51;5;5;
60245;PMS5003;46107;53.356;-1.524;2022-08-04T05:59:20;4;4;
60245;PMS5003;46107;53.356;-1.524;2022-08-04T06:01:48;5;5;
60245;PMS5003;46107;53.356;-1.524;2022-08-04T06:04:17;3;3;
60245;PMS5003;46107;53.356;-1.524;2022-08-04T06:06:45;6;6;
60245;PMS5003;46107;53.356;-1.524;2022-08-04T06:09:13;7;6;
60245;PMS5003;46107;53.356;-1.524;2022-08-04T06:11:41;6;6;
60245;PMS5003;46107;53.356;-1.524;2022-08-04T06:14:11;4;4;
60245;PMS5003;46107;53.356;-1.524;2022-08-04T06:16:40;6;6;
60245;PMS5003;46107;53.356;-1.524;2022-08-04T06:19:11;5;4;
60245;PMS5003;46107;53.356;-1.524;2022-08-04T06:21:42;4;4;
60245;PMS5003;46107;53.356;-1.524;2022-08-04T06:24:12;4;4;
60245;PMS5003;46107;53.356;-1.524;2022-08-04T06:26:43;4;4;
60245;PMS5003;46107;53.356;-1.524;2022-08-04T06:29:16;4;4;
60245;PMS5003;46107;53.356;-1.524;2022-08-04T06:31:44;4;4;
60245;PMS5003;46107;53.356;-1.524;2022-08-04T06:34:13;5;4;
60245;PMS5003;46107;53.356;-1.524;2022-08-04T06:36:41;3;3;
60245;PMS5003;46107;53.356;-1.524;2022-08-04T06:39:10;4;4;
60245;PMS5003;46107;53.356;-1.524;2022-08-04T06:41:38;5;5;
60245;PMS5003;46107;53.356;-1.524;2022-08-04T06:44:06;7;4;
60245;PMS5003;46107;53.356;-1.524;2022-08-04T06:46:37;4;4;
60245;PMS5003;46107;53.356;-1.524;2022-08-04T06:49:07;5;4;
60245;PMS5003;46107;53.356;-1.524;2022-08-04T06:51:35;2;2;
60245;PMS5003;46107;53.356;-1.524;2022-08-04T06:54:04;3;3;
60245;PMS5003;46107;53.356;-1.524;2022-08-04T06:56:32;5;3;
60245;PMS5003;46107;53.356;-1.524;2022-08-04T06:59:02;3;3;
60245;PMS5003;46107;53.356;-1.524;2022-08-04T07:01:29;4;4;
60245;PMS5003;46107;53.356;-1.524;2022-08-04T07:03:58;3;3;
60245;PMS5003;46107;53.356;-1.524;2022-08-04T07:06:25;3;3;
60245;PMS5003;46107;53.356;-1.524;2022-08-04T07:08:52;5;3;
60245;PMS5003;46107;53.356;-1.524;2022-08-04T07:11:20;2;2;
60245;PMS5003;46107;53.356;-1.524;2022-08-04T07:13:48;3;3;
60245;PMS5003;46107;53.356;-1.524;2022-08-04T07:16:17;3;3;
60245;PMS5003;46107;53.356;-1.524;2022-08-04T07:18:47;3;3;
60245;PMS5003;46107;53.356;-1.524;2022-08-04T07:21:19;4;4;
60245;PMS5003;46107;53.356;-1.524;2022-08-04T07:23:47;2;2;
60245;PMS5003;46107;53.356;-1.524;2022-08-04T07:26:14;2;2;
60245;PMS5003;46107;53.356;-1.524;2022-08-04T07:28:42;4;2;
60245;PMS5003;46107;53.356;-1.524;2022-08-04T07:31:12;2;2;
60245;PMS5003;46107;53.356;-1.524;2022-08-04T07:33:41;4;3;
60245;PMS5003;46107;53.356;-1.524;2022-08-04T07:36:10;3;3;
60245;PMS5003;46107;53.356;-1.524;2022-08-04T07:38:38;2;2;
60245;PMS5003;46107;53.356;-1.524;2022-08-04T07:41:07;4;2;
60245;PMS5003;46107;53.356;-1.524;2022-08-04T07:43:35;3;3;
60245;PMS5003;46107;53.356;-1.524;2022-08-04T07:46:03;3;3;
60245;PMS5003;46107;53.356;-1.524;2022-08-04T07:48:30;1;1;
60245;PMS5003;46107;53.356;-1.524;2022-08-04T07:50:58;2;1;
60245;PMS5003;46107;53.356;-1.524;2022-08-04T07:53:26;1;1;
60245;PMS5003;46107;53.356;-1.524;2022-08-04T07:55:54;3;2;
60245;PMS5003;46107;53.356;-1.524;2022-08-04T07:58:22;2;2;
60245;PMS5003;46107;53.356;-1.524;2022-08-04T08:00:49;1;1;
60245;PMS5003;46107;53.356;-1.524;2022-08-04T08:03:17;3;2;
60245;PMS5003;46107;53.356;-1.524;2022-08-04T08:05:45;2;2;
60245;PMS5003;46107;53.356;-1.524;2022-08-04T08:08:12;2;2;
60245;PMS5003;46107;53.356;-1.524;2022-08-04T08:10:44;1;1;
60245;PMS5003;46107;53.356;-1.524;2022-08-04T08:13:13;2;2;
60245;PMS5003;46107;53.356;-1.524;2022-08-04T08:15:43;1;1;
60245;PMS5003;46107;53.356;-1.524;2022-08-04T08:18:11;3;3;
60245;PMS5003;46107;53.356;-1.524;2022-08-04T08:20:39;2;1;
60245;PMS5003;46107;53.356;-1.524;2022-08-04T08:23:10;1;1;
60245;PMS5003;46107;53.356;-1.524;2022-08-04T08:25:39;2;2;
60245;PMS5003;46107;53.356;-1.524;2022-08-04T08:28:06;2;2;
60245;PMS5003;46107;53.356;-1.524;2022-08-04T08:30:34;2;2;
60245;PMS5003;46107;53.356;-1.524;2022-08-04T08:33:03;2;1;
60245;PMS5003;46107;53.356;-1.524;2022-08-04T08:35:35;4;1;
60245;PMS5003;46107;53.356;-1.524;2022-08-04T08:38:13;4;3;
60245;PMS5003;46107;53.356;-1.524;2022-08-04T08:40:47;3;2;
60245;PMS5003;46107;53.356;-1.524;2022-08-04T08:43:39;3;3;
60245;PMS5003;46107;53.356;-1.524;2022-08-04T08:46:25;2;2;
60245;PMS5003;46107;53.356;-1.524;2022-08-04T08:49:13;1;1;
60245;PMS5003;46107;53.356;-1.524;2022-08-04T08:52:03;1;1;
60245;PMS5003;46107;53.356;-1.524;2022-08-04T08:55:24;4;2;
60245;PMS5003;46107;53.356;-1.524;2022-08-04T08:58:01;1;1;
60245;PMS5003;46107;53.356;-1.524;2022-08-04T09:00:49;1;1;
60245;PMS5003;46107;53.356;-1.524;2022-08-04T09:03:27;2;2;
60245;PMS5003;46107;53.356;-1.524;2022-08-04T09:06:16;2;2;
60245;PMS5003;46107;53.356;-1.524;2022-08-04T09:09:01;3;2;
60245;PMS5003;46107;53.356;-1.524;2022-08-04T09:11:48;3;2;
60245;PMS5003;46107;53.356;-1.524;2022-08-04T09:14:34;2;2;
60245;PMS5003;46107;53.356;-1.524;2022-08-04T09:17:10;3;2;
60245;PMS5003;46107;53.356;-1.524;2022-08-04T09:19:48;1;1;
60245;PMS5003;46107;53.356;-1.524;2022-08-04T09:22:31;1;0;
60245;PMS5003;46107;53.356;-1.524;2022-08-04T09:25:07;2;2;
60245;PMS5003;46107;53.356;-1.524;2022-08-04T09:27:42;3;1;
60245;PMS5003;46107;53.356;-1.524;2022-08-04T09:30:17;2;2;
60245;PMS5003;46107;53.356;-1.524;2022-08-04T09:32:48;2;0;
60245;PMS5003;46107;53.356;-1.524;2022-08-04T09:35:32;2;1;
60245;PMS5003;46107;53.356;-1.524;2022-08-04T09:38:09;2;2;
60245;PMS5003;46107;53.356;-1.524;2022-08-04T09:40:46;5;3;
60245;PMS5003;46107;53.356;-1.524;2022-08-04T09:43:22;1;1;
60245;PMS5003;46107;53.356;-1.524;2022-08-04T09:46:01;0;0;
60245;PMS5003;46107;53.356;-1.524;2022-08-04T09:48:36;0;0;
60245;PMS5003;46107;53.356;-1.524;2022-08-04T09:51:14;7;2;
60245;PMS5003;46107;53.356;-1.524;2022-08-04T09:54:01;2;2;
60245;PMS5003;46107;53.356;-1.524;2022-08-04T09:56:34;1;0;
60245;PMS5003;46107;53.356;-1.524;2022-08-04T09:59:12;2;1;
60245;PMS5003;46107;53.356;-1.524;2022-08-04T10:01:48;2;2;
60245;PMS5003;46107;53.356;-1.524;2022-08-04T10:04:20;2;2;
60245;PMS5003;46107;53.356;-1.524;2022-08-04T10:06:59;1;1;
60245;PMS5003;46107;53.356;-1.524;2022-08-04T10:09:42;2;2;
60245;PMS5003;46107;53.356;-1.524;2022-08-04T10:12:28;2;2;
60245;PMS5003;46107;53.356;-1.524;2022-08-04T10:15:07;2;1;
60245;PMS5003;46107;53.356;-1.524;2022-08-04T10:17:41;1;1;
60245;PMS5003;46107;53.356;-1.524;2022-08-04T10:20:29;0;0;
60245;PMS5003;46107;53.356;-1.524;2022-08-04T10:23:11;2;2;
60245;PMS5003;46107;53.356;-1.524;2022-08-04T10:26:01;4;1;
60245;PMS5003;46107;53.356;-1.524;2022-08-04T10:28:48;1;1;
60245;PMS5003;46107;53.356;-1.524;2022-08-04T10:31:21;1;1;
60245;PMS5003;46107;53.356;-1.524;2022-08-04T10:33:56;1;1;
60245;PMS5003;46107;53.356;-1.524;2022-08-04T10:36:31;3;2;
60245;PMS5003;46107;53.356;-1.524;2022-08-04T10:39:05;2;2;
60245;PMS5003;46107;53.356;-1.524;2022-08-04T10:41:39;1;1;
60245;PMS5003;46107;53.356;-1.524;2022-08-04T10:44:19;1;1;
60245;PMS5003;46107;53.356;-1.524;2022-08-04T10:46:54;2;1;
60245;PMS5003;46107;53.356;-1.524;2022-08-04T10:49:29;1;1;
60245;PMS5003;46107;53.356;-1.524;2022-08-04T10:52:04;2;2;
60245;PMS5003;46107;53.356;-1.524;2022-08-04T10:54:38;0;0;
60245;PMS5003;46107;53.356;-1.524;2022-08-04T10:57:11;0;0;
60245;PMS5003;46107;53.356;-1.524;2022-08-04T10:59:48;1;1;
60245;PMS5003;46107;53.356;-1.524;2022-08-04T11:02:28;2;2;
60245;PMS5003;46107;53.356;-1.524;2022-08-04T11:05:09;1;1;
60245;PMS5003;46107;53.356;-1.524;2022-08-04T11:07:43;0;0;
60245;PMS5003;46107;53.356;-1.524;2022-08-04T11:10:13;2;2;
60245;PMS5003;46107;53.356;-1.524;2022-08-04T11:12:44;0;0;
60245;PMS5003;46107;53.356;-1.524;2022-08-04T11:15:19;1;1;
60245;PMS5003;46107;53.356;-1.524;2022-08-04T11:17:52;2;0;
60245;PMS5003;46107;53.356;-1.524;2022-08-04T11:20:27;1;1;
60245;PMS5003;46107;53.356;-1.524;2022-08-04T11:23:01;3;1;
60245;PMS5003;46107;53.356;-1.524;2022-08-04T11:25:34;2;2;
60245;PMS5003;46107;53.356;-1.524;2022-08-04T11:28:11;1;1;
60245;PMS5003;46107;53.356;-1.524;2022-08-04T11:30:45;2;2;
60245;PMS5003;46107;53.356;-1.524;2022-08-04T11:33:20;5;4;
60245;PMS5003;46107;53.356;-1.524;2022-08-04T11:36:01;2;2;
60245;PMS5003;46107;53.356;-1.524;2022-08-04T11:38:35;1;1;
60245;PMS5003;46107;53.356;-1.524;2022-08-04T11:41:10;2;1;
60245;PMS5003;46107;53.356;-1.524;2022-08-04T11:43:53;2;2;
60245;PMS5003;46107;53.356;-1.524;2022-08-04T11:46:25;2;2;
60245;PMS5003;46107;53.356;-1.524;2022-08-04T11:49:00;2;2;
60245;PMS5003;46107;53.356;-1.524;2022-08-04T11:51:32;2;2;
60245;PMS5003;46107;53.356;-1.524;2022-08-04T11:54:01;3;2;
60245;PMS5003;46107;53.356;-1.524;2022-08-04T11:56:28;1;1;
60245;PMS5003;46107;53.356;-1.524;2022-08-04T11:58:56;1;1;
60245;PMS5003;46107;53.356;-1.524;2022-08-04T12:01:29;2;2;
60245;PMS5003;46107;53.356;-1.524;2022-08-04T12:04:13;1;1;
60245;PMS5003;46107;53.356;-1.524;2022-08-04T12:06:53;0;0;
60245;PMS5003;46107;53.356;-1.524;2022-08-04T12:09:27;1;1;
60245;PMS5003;46107;53.356;-1.524;2022-08-04T12:12:06;1;1;
60245;PMS5003;46107;53.356;-1.524;2022-08-04T12:14:46;0;0;
60245;PMS5003;46107;53.356;-1.524;2022-08-04T12:17:21;0;0;
60245;PMS5003;46107;53.356;-1.524;2022-08-04T12:19:56;1;1;
60245;PMS5003;46107;53.356;-1.524;2022-08-04T12:22:31;1;0;
60245;PMS5003;46107;53.356;-1.524;2022-08-04T12:25:04;2;1;
60245;PMS5003;46107;53.356;-1.524;2022-08-04T12:27:34;1;1;
60245;PMS5003;46107;53.356;-1.524;2022-08-04T12:30:05;1;1;
60245;PMS5003;46107;53.356;-1.524;2022-08-04T12:32:35;0;0;
60245;PMS5003;46107;53.356;-1.524;2022-08-04T12:35:12;0;0;
60245;PMS5003;46107;53.356;-1.524;2022-08-04T12:37:49;1;1;
60245;PMS5003;46107;53.356;-1.524;2022-08-04T12:40:24;1;1;
60245;PMS5003;46107;53.356;-1.524;2022-08-04T12:42:57;0;0;
60245;PMS5003;46107;53.356;-1.524;2022-08-04T12:45:31;1;1;
60245;PMS5003;46107;53.356;-1.524;2022-08-04T12:47:59;1;1;
60245;PMS5003;46107;53.356;-1.524;2022-08-04T12:50:30;1;0;
60245;PMS5003;46107;53.356;-1.524;2022-08-04T12:52:58;2;1;
60245;PMS5003;46107;53.356;-1.524;2022-08-04T12:55:27;1;1;
60245;PMS5003;46107;53.356;-1.524;2022-08-04T12:57:55;0;0;
60245;PMS5003;46107;53.356;-1.524;2022-08-04T13:00:25;0;0;
60245;PMS5003;46107;53.356;-1.524;2022-08-04T13:02:54;1;1;
60245;PMS5003;46107;53.356;-1.524;2022-08-04T13:05:29;2;2;
60245;PMS5003;46107;53.356;-1.524;2022-08-04T13:07:58;0;0;
60245;PMS5003;46107;53.356;-1.524;2022-08-04T13:10:29;0;0;
60245;PMS5003;46107;53.356;-1.524;2022-08-04T13:13:02;1;1;
60245;PMS5003;46107;53.356;-1.524;2022-08-04T13:15:31;1;1;
60245;PMS5003;46107;53.356;-1.524;2022-08-04T13:18:00;0;0;
60245;PMS5003;46107;53.356;-1.524;2022-08-04T13:20:31;2;1;
60245;PMS5003;46107;53.356;-1.524;2022-08-04T13:23:04;0;0;
60245;PMS5003;46107;53.356;-1.524;2022-08-04T13:25:34;1;1;
60245;PMS5003;46107;53.356;-1.524;2022-08-04T13:28:11;1;1;
60245;PMS5003;46107;53.356;-1.524;2022-08-04T13:30:41;2;1;
60245;PMS5003;46107;53.356;-1.524;2022-08-04T13:33:11;1;1;
60245;PMS5003;46107;53.356;-1.524;2022-08-04T13:35:42;1;1;
60245;PMS5003;46107;53.356;-1.524;2022-08-04T13:38:10;1;1;
60245;PMS5003;46107;53.356;-1.524;2022-08-04T13:40:40;1;1;
60245;PMS5003;46107;53.356;-1.524;2022-08-04T13:43:21;0;0;
60245;PMS5003;46107;53.356;-1.524;2022-08-04T13:45:52;1;1;
60245;PMS5003;46107;53.356;-1.524;2022-08-04T13:48:29;2;1;
60245;PMS5003;46107;53.356;-1.524;2022-08-04T13:50:59;1;1;
60245;PMS5003;46107;53.356;-1.524;2022-08-04T13:53:28;0;0;
60245;PMS5003;46107;53.356;-1.524;2022-08-04T13:55:55;1;1;
60245;PMS5003;46107;53.356;-1.524;2022-08-04T13:58:24;2;2;
60245;PMS5003;46107;53.356;-1.524;2022-08-04T14:00:57;2;2;
60245;PMS5003;46107;53.356;-1.524;2022-08-04T14:03:28;1;1;
60245;PMS5003;46107;53.356;-1.524;2022-08-04T14:06:06;3;1;
60245;PMS5003;46107;53.356;-1.524;2022-08-04T14:08:44;2;2;
60245;PMS5003;46107;53.356;-1.524;2022-08-04T14:11:15;0;0;
60245;PMS5003;46107;53.356;-1.524;2022-08-04T14:13:44;3;3;
60245;PMS5003;46107;53.356;-1.524;2022-08-04T14:16:14;3;3;
60245;PMS5003;46107;53.356;-1.524;2022-08-04T14:18:56;1;1;
60245;PMS5003;46107;53.356;-1.524;2022-08-04T14:21:25;1;1;
60245;PMS5003;46107;53.356;-1.524;2022-08-04T14:23:54;1;1;
60245;PMS5003;46107;53.356;-1.524;2022-08-04T14:26:24;2;2;
60245;PMS5003;46107;53.356;-1.524;2022-08-04T14:28:53;1;1;
60245;PMS5003;46107;53.356;-1.524;2022-08-04T14:31:23;1;1;
60245;PMS5003;46107;53.356;-1.524;2022-08-04T14:33:52;2;2;
60245;PMS5003;46107;53.356;-1.524;2022-08-04T14:36:20;1;1;
60245;PMS5003;46107;53.356;-1.524;2022-08-04T14:38:49;1;1;
60245;PMS5003;46107;53.356;-1.524;2022-08-04T14:41:19;2;2;
60245;PMS5003;46107;53.356;-1.524;2022-08-04T14:43:50;2;2;
60245;PMS5003;46107;53.356;-1.524;2022-08-04T14:46:19;3;2;
60245;PMS5003;46107;53.356;-1.524;2022-08-04T14:49:05;2;2;
60245;PMS5003;46107;53.356;-1.524;2022-08-04T14:51:35;1;1;
60245;PMS5003;46107;53.356;-1.524;2022-08-04T14:54:05;2;2;
60245;PMS5003;46107;53.356;-1.524;2022-08-04T14:56:33;3;1;
60245;PMS5003;46107;53.356;-1.524;2022-08-04T14:59:02;1;1;
60245;PMS5003;46107;53.356;-1.524;2022-08-04T15:01:33;2;1;
60245;PMS5003;46107;53.356;-1.524;2022-08-04T15:04:04;3;1;
60245;PMS5003;46107;53.356;-1.524;2022-08-04T15:06:32;0;0;
60245;PMS5003;46107;53.356;-1.524;2022-08-04T15:09:02;2;2;
60245;PMS5003;46107;53.356;-1.524;2022-08-04T15:11:36;1;1;
60245;PMS5003;46107;53.356;-1.524;2022-08-04T15:14:04;2;2;
60245;PMS5003;46107;53.356;-1.524;2022-08-04T15:16:32;2;2;
60245;PMS5003;46107;53.356;-1.524;2022-08-04T15:18:59;1;1;
60245;PMS5003;46107;53.356;-1.524;2022-08-04T15:21:27;3;2;
60245;PMS5003;46107;53.356;-1.524;2022-08-04T15:23:55;3;3;
60245;PMS5003;46107;53.356;-1.524;2022-08-04T15:26:26;4;4;
60245;PMS5003;46107;53.356;-1.524;2022-08-04T15:29:00;2;1;
60245;PMS5003;46107;53.356;-1.524;2022-08-04T15:31:37;2;2;
60245;PMS5003;46107;53.356;-1.524;2022-08-04T15:34:07;2;2;
60245;PMS5003;46107;53.356;-1.524;2022-08-04T15:36:39;2;2;
60245;PMS5003;46107;53.356;-1.524;2022-08-04T15:39:16;2;2;
60245;PMS5003;46107;53.356;-1.524;2022-08-04T15:41:59;1;1;
60245;PMS5003;46107;53.356;-1.524;2022-08-04T15:44:47;3;3;
60245;PMS5003;46107;53.356;-1.524;2022-08-04T15:47:28;5;4;
60245;PMS5003;46107;53.356;-1.524;2022-08-04T15:50:12;3;3;
60245;PMS5003;46107;53.356;-1.524;2022-08-04T15:53:12;3;3;
60245;PMS5003;46107;53.356;-1.524;2022-08-04T15:55:40;1;1;
60245;PMS5003;46107;53.356;-1.524;2022-08-04T15:58:09;2;2;
60245;PMS5003;46107;53.356;-1.524;2022-08-04T16:01:43;2;2;
60245;PMS5003;46107;53.356;-1.524;2022-08-04T16:04:20;1;1;
60245;PMS5003;46107;53.356;-1.524;2022-08-04T16:06:49;3;3;
60245;PMS5003;46107;53.356;-1.524;2022-08-04T16:09:21;2;2;
60245;PMS5003;46107;53.356;-1.524;2022-08-04T16:11:50;5;4;
60245;PMS5003;46107;53.356;-1.524;2022-08-04T16:14:34;3;3;
60245;PMS5003;46107;53.356;-1.524;2022-08-04T16:17:17;2;2;
60245;PMS5003;46107;53.356;-1.524;2022-08-04T16:19:48;2;2;
60245;PMS5003;46107;53.356;-1.524;2022-08-04T16:22:31;3;3;
60245;PMS5003;46107;53.356;-1.524;2022-08-04T16:25:00;2;2;
60245;PMS5003;46107;53.356;-1.524;2022-08-04T16:27:41;4;2;
60245;PMS5003;46107;53.356;-1.524;2022-08-04T16:30:11;4;3;
60245;PMS5003;46107;53.356;-1.524;2022-08-04T16:32:41;1;1;
60245;PMS5003;46107;53.356;-1.524;2022-08-04T16:35:19;4;2;
60245;PMS5003;46107;53.356;-1.524;2022-08-04T16:37:48;2;2;
60245;PMS5003;46107;53.356;-1.524;2022-08-04T16:40:24;2;2;
60245;PMS5003;46107;53.356;-1.524;2022-08-04T16:42:56;4;2;
60245;PMS5003;46107;53.356;-1.524;2022-08-04T16:45:45;2;2;
60245;PMS5003;46107;53.356;-1.524;2022-08-04T16:48:14;2;2;
60245;PMS5003;46107;53.356;-1.524;2022-08-04T16:50:45;2;1;
60245;PMS5003;46107;53.356;-1.524;2022-08-04T16:53:18;3;3;
60245;PMS5003;46107;53.356;-1.524;2022-08-04T16:55:47;2;2;
60245;PMS5003;46107;53.356;-1.524;2022-08-04T16:58:17;2;2;
60245;PMS5003;46107;53.356;-1.524;2022-08-04T17:00:51;1;1;
60245;PMS5003;46107;53.356;-1.524;2022-08-04T17:03:19;1;1;
60245;PMS5003;46107;53.356;-1.524;2022-08-04T17:05:47;2;1;
60245;PMS5003;46107;53.356;-1.524;2022-08-04T17:08:14;4;2;
60245;PMS5003;46107;53.356;-1.524;2022-08-04T17:10:42;3;2;
60245;PMS5003;46107;53.356;-1.524;2022-08-04T17:13:23;2;1;
60245;PMS5003;46107;53.356;-1.524;2022-08-04T17:15:53;2;2;
60245;PMS5003;46107;53.356;-1.524;2022-08-04T17:18:23;2;2;
60245;PMS5003;46107;53.356;-1.524;2022-08-04T17:20:53;2;0;
60245;PMS5003;46107;53.356;-1.524;2022-08-04T17:23:23;0;0;
60245;PMS5003;46107;53.356;-1.524;2022-08-04T17:25:52;1;1;
60245;PMS5003;46107;53.356;-1.524;2022-08-04T17:28:21;3;2;